createdAt,value
2023-03-03T00:02:26.180Z,99262.53
2023-03-03T00:07:34.669Z,99255.53
2023-03-03T00:12:51.177Z,99269.69
2023-03-03T00:17:57.242Z,99268.31
2023-03-03T00:23:19.753Z,99275.00
2023-03-03T00:28:28.356Z,99286.41
2023-03-03T00:33:40.113Z,99289.97
2023-03-03T00:38:50.504Z,99287.19
2023-03-03T00:43:58.349Z,99281.31
2023-03-03T00:49:03.571Z,99274.84
2023-03-03T00:54:11.778Z,99289.66
2023-03-03T00:59:19.220Z,99285.16
2023-03-03T01:04:24.796Z,99281.91
2023-03-03T01:09:32.479Z,99267.66
2023-03-03T01:14:38.609Z,99287.44
2023-03-03T01:19:46.074Z,99290.38
2023-03-03T01:24:55.043Z,99286.00
2023-03-03T01:30:05.590Z,99282.16
2023-03-03T01:35:12.863Z,99285.25
2023-03-03T01:40:25.814Z,99282.91
2023-03-03T01:45:32.671Z,99283.72
2023-03-03T01:50:48.260Z,99268.34
2023-03-03T01:55:56.636Z,99267.75
2023-03-03T02:01:05.834Z,99267.44
2023-03-03T02:06:14.975Z,99271.72
2023-03-03T02:11:36.808Z,99272.47
2023-03-03T02:16:42.670Z,99279.81
2023-03-03T02:21:47.727Z,99280.69
2023-03-03T02:26:55.588Z,99264.69
2023-03-03T02:32:00.768Z,99260.41
2023-03-03T02:37:07.389Z,99272.03
2023-03-03T02:42:23.075Z,99275.66
2023-03-03T02:47:32.433Z,99280.81
2023-03-03T02:52:38.127Z,99265.56
2023-03-03T02:57:47.843Z,99269.44
2023-03-03T03:02:53.133Z,99271.31
2023-03-03T03:07:58.180Z,99275.72
2023-03-03T03:13:06.281Z,99292.84
2023-03-03T03:18:11.691Z,99289.53
2023-03-03T03:23:17.956Z,99292.44
2023-03-03T03:28:25.711Z,99287.47
2023-03-03T03:33:31.494Z,99286.66
2023-03-03T03:38:39.159Z,99273.41
2023-03-03T03:43:48.081Z,99271.94
2023-03-03T03:48:55.316Z,99287.72
2023-03-03T03:54:01.424Z,99295.25
2023-03-03T03:59:13.446Z,99293.88
2023-03-03T04:04:19.615Z,99290.53
2023-03-03T04:09:24.897Z,99299.72
2023-03-03T04:14:33.936Z,99307.63
2023-03-03T04:19:39.453Z,99310.66
2023-03-03T04:24:44.838Z,99305.63
2023-03-03T04:29:53.196Z,99304.19
2023-03-03T04:35:07.742Z,99315.50
2023-03-03T04:40:16.550Z,99319.25
2023-03-03T04:45:24.345Z,99322.31
2023-03-03T04:50:29.685Z,99317.66
2023-03-03T04:55:35.790Z,99315.28
2023-03-03T05:00:43.464Z,99326.09
2023-03-03T05:05:50.384Z,99330.03
2023-03-03T05:10:56.546Z,99325.09
2023-03-03T05:16:04.205Z,99314.78
2023-03-03T05:21:09.349Z,99310.72
2023-03-03T05:26:14.327Z,99324.84
2023-03-03T05:31:21.986Z,99313.06
2023-03-03T05:36:27.649Z,99329.84
2023-03-03T05:41:33.019Z,99335.56
2023-03-03T05:46:41.903Z,99330.81
2023-03-03T05:51:47.002Z,99325.91
2023-03-03T05:56:57.133Z,99333.75
2023-03-03T06:02:08.494Z,99327.72
2023-03-03T06:07:13.670Z,99329.22
2023-03-03T06:12:18.654Z,99328.91
2023-03-03T06:17:26.533Z,99327.03
2023-03-03T06:22:31.669Z,99333.91
2023-03-03T06:27:36.783Z,99337.44
2023-03-03T06:32:45.254Z,99359.66
2023-03-03T06:37:53.636Z,99367.50
2023-03-03T06:42:58.683Z,99369.19
2023-03-03T06:48:06.832Z,99368.31
2023-03-03T06:53:16.412Z,99360.44
2023-03-03T06:58:26.430Z,99376.41
2023-03-03T07:03:40.429Z,99391.09
2023-03-03T07:08:45.388Z,99366.94
2023-03-03T07:13:52.706Z,99371.13
2023-03-03T07:19:04.151Z,99387.72
2023-03-03T07:24:22.878Z,99382.31
2023-03-03T07:29:30.684Z,99396.69
2023-03-03T07:34:43.357Z,99400.38
2023-03-03T07:39:52.996Z,99408.66
2023-03-03T07:45:01.420Z,99409.16
2023-03-03T07:50:19.483Z,99408.06
2023-03-03T07:55:33.073Z,99409.75
2023-03-03T08:01:10.545Z,99405.97
2023-03-03T08:06:45.999Z,99408.47
2023-03-03T08:11:56.692Z,99403.97
2023-03-03T08:17:05.472Z,99413.13
2023-03-03T08:22:19.246Z,99404.75
2023-03-03T08:27:26.839Z,99405.03
2023-03-03T08:32:32.798Z,99413.09
2023-03-03T08:37:40.456Z,99418.16
2023-03-03T08:42:45.389Z,99424.72
2023-03-03T08:47:50.358Z,99434.91
2023-03-03T08:53:00.672Z,99436.13
2023-03-03T08:58:06.745Z,99429.97
2023-03-03T09:03:14.189Z,99433.16
2023-03-03T09:08:22.104Z,99422.06
2023-03-03T09:13:27.532Z,99427.31
2023-03-03T09:18:38.783Z,99424.81
2023-03-03T09:23:54.705Z,99436.25
2023-03-03T09:29:11.693Z,99448.75
2023-03-03T09:34:24.118Z,99452.09
2023-03-03T09:39:34.246Z,99456.88
2023-03-03T09:45:06.934Z,99459.22
2023-03-03T09:50:26.627Z,99472.28
2023-03-03T09:55:59.178Z,99467.25
2023-03-03T10:01:18.994Z,99469.81
2023-03-03T10:06:32.019Z,99472.72
2023-03-03T10:11:53.343Z,99480.47
2023-03-03T10:17:22.544Z,99487.72
2023-03-03T10:22:36.837Z,99473.47
2023-03-03T10:28:02.684Z,99472.59
2023-03-03T10:33:15.851Z,99474.66
2023-03-03T10:38:35.617Z,99476.56
2023-03-03T10:44:07.308Z,99475.69
2023-03-03T10:49:25.197Z,99471.84
2023-03-03T10:54:47.796Z,99473.50
2023-03-03T11:00:08.731Z,99486.31
2023-03-03T11:05:24.298Z,99474.41
2023-03-03T11:10:55.972Z,99472.75
2023-03-03T11:16:19.294Z,99479.81
2023-03-03T11:21:29.522Z,99466.00
2023-03-03T11:27:07.663Z,99472.47
2023-03-03T11:32:26.291Z,99458.16
2023-03-03T11:37:42.831Z,99460.63
2023-03-03T11:43:01.523Z,99456.31
2023-03-03T11:48:17.770Z,99453.41
2023-03-03T11:53:35.134Z,99455.16
2023-03-03T11:58:49.268Z,99450.97
2023-03-03T12:04:06.215Z,99450.22
2023-03-03T12:09:23.770Z,99447.34
2023-03-03T12:14:49.387Z,99442.72
2023-03-03T12:20:06.662Z,99442.19
2023-03-03T12:25:26.229Z,99433.13
2023-03-03T12:31:03.700Z,99437.41
2023-03-03T12:36:24.402Z,99432.72
2023-03-03T12:41:36.052Z,99434.19
2023-03-03T12:46:49.623Z,99413.59
2023-03-03T12:52:11.793Z,99413.56
2023-03-03T12:57:24.460Z,99415.88
2023-03-03T13:02:47.015Z,99411.81
2023-03-03T13:08:08.884Z,99407.22
2023-03-03T13:13:20.159Z,99400.81
2023-03-03T13:18:48.864Z,99405.44
2023-03-03T13:24:05.026Z,99408.59
2023-03-03T13:29:18.780Z,99400.97
2023-03-03T13:34:34.001Z,99394.78
2023-03-03T13:39:54.913Z,99399.72
2023-03-03T13:45:02.491Z,99395.78
2023-03-03T13:50:20.522Z,99381.19
2023-03-03T13:55:35.516Z,99383.94
2023-03-03T14:00:54.676Z,99377.19
2023-03-03T14:06:05.312Z,99372.22
2023-03-03T14:11:26.564Z,99370.16
2023-03-03T14:16:50.647Z,99364.78
2023-03-03T14:22:11.908Z,99362.81
2023-03-03T14:27:29.150Z,99363.19
2023-03-03T14:32:45.107Z,99368.25
2023-03-03T14:37:53.627Z,99359.41
2023-03-03T14:43:06.922Z,99361.16
2023-03-03T14:48:19.274Z,99359.28
2023-03-03T14:53:34.899Z,99350.00
2023-03-03T14:58:44.976Z,99352.63
2023-03-03T15:03:53.127Z,99341.44
2023-03-03T15:08:59.690Z,99352.28
2023-03-03T15:14:18.910Z,99347.75
2023-03-03T15:19:47.859Z,99354.47
2023-03-03T15:25:02.069Z,99348.06
2023-03-03T15:30:18.033Z,99347.47
2023-03-03T15:35:38.447Z,99345.00
2023-03-03T15:40:49.346Z,99339.72
2023-03-03T15:46:09.864Z,99343.69
2023-03-03T15:51:26.783Z,99346.84
2023-03-03T15:56:40.835Z,99344.53
2023-03-03T16:01:57.462Z,99334.59
2023-03-03T16:07:08.522Z,99333.63
2023-03-03T16:12:22.659Z,99331.00
2023-03-03T16:17:47.294Z,99337.56
2023-03-03T16:23:19.353Z,99327.28
2023-03-03T16:28:32.715Z,99339.72
2023-03-03T16:33:49.405Z,99331.38
2023-03-03T16:39:04.418Z,99343.31
2023-03-03T16:44:37.358Z,99334.53
2023-03-03T16:49:54.774Z,99341.19
2023-03-03T16:55:03.072Z,99329.78
2023-03-03T17:00:15.608Z,99336.50
2023-03-03T17:05:33.836Z,99339.53
2023-03-03T17:10:44.182Z,99334.47
2023-03-03T17:16:00.888Z,99340.19
2023-03-03T17:21:17.653Z,99345.16
2023-03-03T17:26:40.776Z,99354.13
2023-03-03T17:31:52.338Z,99352.69
2023-03-03T17:37:12.856Z,99349.28
2023-03-03T17:42:25.039Z,99353.22
2023-03-03T17:47:44.127Z,99356.38
2023-03-03T17:53:23.550Z,99358.00
2023-03-03T17:58:46.274Z,99343.81
2023-03-03T18:04:12.069Z,99352.69
2023-03-03T18:09:51.910Z,99355.38
2023-03-03T18:15:23.450Z,99359.50
2023-03-03T18:20:47.415Z,99354.19
2023-03-03T18:26:00.015Z,99348.84
2023-03-03T18:31:06.791Z,99354.47
2023-03-03T18:36:17.491Z,99360.00
2023-03-03T18:41:30.179Z,99363.06
2023-03-03T18:46:56.461Z,99366.47
2023-03-03T18:52:20.724Z,99369.13
2023-03-03T18:57:28.688Z,99358.19
2023-03-03T19:02:43.337Z,99359.91
2023-03-03T19:08:02.346Z,99361.91
2023-03-03T19:13:32.329Z,99363.06
2023-03-03T19:18:40.851Z,99356.91
2023-03-03T19:24:02.132Z,99355.81
2023-03-03T19:29:26.774Z,99366.03
2023-03-03T19:34:42.293Z,99358.91
2023-03-03T19:40:01.486Z,99347.59
2023-03-03T19:45:26.775Z,99343.28
2023-03-03T19:50:40.012Z,99348.53
2023-03-03T19:56:00.738Z,99356.94
2023-03-03T20:01:20.723Z,99351.28
2023-03-03T20:06:40.538Z,99356.19
2023-03-03T20:12:01.753Z,99354.34
2023-03-03T20:17:29.337Z,99347.09
2023-03-03T20:22:44.164Z,99345.25
2023-03-03T20:27:58.030Z,99342.47
2023-03-03T20:33:33.354Z,99339.66
2023-03-03T20:38:49.252Z,99338.28
2023-03-03T20:44:05.778Z,99325.81
2023-03-03T20:49:29.997Z,99321.72
2023-03-03T20:54:45.139Z,99321.72
2023-03-03T21:00:00.286Z,99321.00
2023-03-03T21:05:17.275Z,99325.22
2023-03-03T21:10:25.515Z,99316.28
2023-03-03T21:15:35.792Z,99307.66
2023-03-03T21:20:43.450Z,99302.97
2023-03-03T21:25:55.101Z,99297.38
2023-03-03T21:31:18.805Z,99299.75
2023-03-03T21:36:47.068Z,99301.09
2023-03-03T21:41:56.800Z,99289.56
2023-03-03T21:47:02.123Z,99293.13
2023-03-03T21:52:10.311Z,99289.13
2023-03-03T21:57:16.101Z,99277.31
2023-03-03T22:02:21.173Z,99290.53
2023-03-03T22:07:29.254Z,99270.66
2023-03-03T22:12:34.152Z,99273.28
2023-03-03T22:17:40.851Z,99271.69
2023-03-03T22:22:48.482Z,99268.50
2023-03-03T22:27:53.505Z,99264.72
2023-03-03T22:32:59.025Z,99261.88
2023-03-03T22:38:06.791Z,99262.47
2023-03-03T22:43:14.689Z,99258.03
2023-03-03T22:48:19.699Z,99246.84
2023-03-03T22:53:28.201Z,99254.06
2023-03-03T22:58:33.157Z,99243.84
2023-03-03T23:03:38.159Z,99244.75
2023-03-03T23:08:45.716Z,99237.91
2023-03-03T23:13:50.634Z,99224.66
2023-03-03T23:18:57.471Z,99220.34
2023-03-03T23:24:07.055Z,99220.38
2023-03-03T23:29:12.003Z,99218.69
2023-03-03T23:34:16.907Z,99212.63
2023-03-03T23:39:24.493Z,99201.78
2023-03-03T23:44:29.426Z,99196.00
2023-03-03T23:49:37.865Z,99207.06
2023-03-03T23:54:45.478Z,99201.22
2023-03-03T23:59:50.543Z,99203.16
